createdAt,value
2019-03-26T00:00:51.735Z,6.30
2019-03-26T00:03:20.873Z,6.30
2019-03-26T00:05:51.023Z,6.30
2019-03-26T00:08:21.340Z,6.30
2019-03-26T00:10:50.154Z,6.30
2019-03-26T00:13:20.024Z,6.20
2019-03-26T00:15:48.751Z,6.30
2019-03-26T00:18:17.602Z,6.30
2019-03-26T00:20:46.399Z,6.20
2019-03-26T00:23:15.242Z,6.20
2019-03-26T00:25:44.067Z,6.20
2019-03-26T00:28:12.849Z,6.20
2019-03-26T00:30:41.695Z,6.10
2019-03-26T00:33:10.894Z,6.10
2019-03-26T00:35:40.023Z,6.10
2019-03-26T00:38:08.815Z,6.10
2019-03-26T00:40:40.060Z,6.00
2019-03-26T00:43:08.096Z,6.00
2019-03-26T00:45:36.815Z,6.00
2019-03-26T00:48:05.678Z,6.00
2019-03-26T00:50:34.458Z,6.00
2019-03-26T00:53:03.288Z,6.00
2019-03-26T00:55:32.707Z,6.10
2019-03-26T00:58:01.908Z,6.10
2019-03-26T01:00:43.948Z,6.10
2019-03-26T01:03:12.940Z,6.10
2019-03-26T01:05:41.751Z,6.10
2019-03-26T01:08:10.940Z,6.10
2019-03-26T01:10:41.882Z,6.00
2019-03-26T01:13:11.354Z,6.00
2019-03-26T01:15:40.475Z,6.00
2019-03-26T01:18:11.690Z,6.00
2019-03-26T01:20:41.035Z,6.00
2019-03-26T01:23:09.873Z,6.00
2019-03-26T01:25:39.741Z,6.00
2019-03-26T01:28:12.593Z,5.90
2019-03-26T01:30:43.818Z,5.90
2019-03-26T01:33:16.055Z,6.00
2019-03-26T01:35:46.947Z,5.90
2019-03-26T01:38:17.230Z,6.00
2019-03-26T01:40:47.576Z,6.00
2019-03-26T01:43:16.449Z,6.00
2019-03-26T01:45:46.112Z,6.00
2019-03-26T01:48:16.976Z,6.10
2019-03-26T01:50:47.373Z,6.10
2019-03-26T01:53:20.104Z,6.10
2019-03-26T01:55:49.085Z,6.10
2019-03-26T01:58:19.407Z,6.10
2019-03-26T02:00:52.189Z,6.10
2019-03-26T02:03:24.503Z,6.10
2019-03-26T02:05:53.414Z,6.10
2019-03-26T02:08:25.289Z,6.10
2019-03-26T02:10:55.119Z,6.20
2019-03-26T02:13:26.317Z,6.10
2019-03-26T02:15:57.909Z,6.20
2019-03-26T02:18:26.769Z,6.10
2019-03-26T02:20:56.476Z,6.10
2019-03-26T02:23:27.175Z,6.20
2019-03-26T02:25:58.549Z,6.20
2019-03-26T02:28:28.098Z,6.20
2019-03-26T02:30:57.102Z,6.20
2019-03-26T02:33:27.812Z,6.20
2019-03-26T02:35:58.963Z,6.20
2019-03-26T02:38:28.734Z,6.20
2019-03-26T02:40:57.707Z,6.20
2019-03-26T02:43:26.896Z,6.20
2019-03-26T02:45:55.864Z,6.20
2019-03-26T02:48:26.868Z,6.20
2019-03-26T02:50:58.552Z,6.10
2019-03-26T02:53:27.796Z,6.10
2019-03-26T02:55:58.419Z,6.00
2019-03-26T02:58:27.645Z,6.00
2019-03-26T03:00:57.601Z,5.90
2019-03-26T03:03:27.799Z,5.90
2019-03-26T03:05:56.626Z,5.90
2019-03-26T03:08:25.604Z,5.80
2019-03-26T03:10:56.056Z,5.80
2019-03-26T03:13:25.820Z,5.80
2019-03-26T03:15:58.358Z,5.70
2019-03-26T03:18:27.649Z,5.70
2019-03-26T03:20:58.628Z,5.60
2019-03-26T03:23:29.441Z,5.60
2019-03-26T03:26:01.180Z,5.60
2019-03-26T03:28:32.266Z,5.60
2019-03-26T03:31:03.079Z,5.60
2019-03-26T03:33:35.361Z,5.50
2019-03-26T03:36:07.508Z,5.50
2019-03-26T03:38:36.679Z,5.50
2019-03-26T03:41:08.619Z,5.50
2019-03-26T03:43:37.559Z,5.50
2019-03-26T03:46:10.258Z,5.40
2019-03-26T03:48:43.192Z,5.40
2019-03-26T03:51:17.180Z,5.50
2019-03-26T03:53:46.315Z,5.40
2019-03-26T03:56:18.973Z,5.40
2019-03-26T03:58:48.868Z,5.30
2019-03-26T04:01:19.017Z,5.30
2019-03-26T04:03:50.262Z,5.30
2019-03-26T04:06:19.353Z,5.20
2019-03-26T04:08:49.591Z,5.20
2019-03-26T04:11:20.108Z,5.20
2019-03-26T04:13:49.454Z,5.10
2019-03-26T04:16:20.034Z,5.10
2019-03-26T04:18:49.440Z,5.20
2019-03-26T04:21:19.782Z,5.20
2019-03-26T04:23:51.249Z,5.20
2019-03-26T04:26:23.568Z,5.20
2019-03-26T04:28:52.539Z,5.20
2019-03-26T04:31:22.850Z,5.20
2019-03-26T04:33:52.589Z,5.30
2019-03-26T04:36:26.187Z,5.30
2019-03-26T04:38:58.045Z,5.30
2019-03-26T04:41:30.139Z,5.30
2019-03-26T04:44:01.331Z,5.30
2019-03-26T04:46:31.708Z,5.20
2019-03-26T04:49:01.169Z,5.20
2019-03-26T04:51:32.575Z,5.20
2019-03-26T04:54:02.790Z,5.20
2019-03-26T04:56:35.684Z,5.20
2019-03-26T04:59:07.221Z,5.30
2019-03-26T05:01:38.842Z,5.30
2019-03-26T05:04:09.902Z,5.30
2019-03-26T05:06:58.000Z,5.30
2019-03-26T05:09:26.834Z,5.30
2019-03-26T05:11:55.656Z,5.20
2019-03-26T05:14:24.379Z,5.20
2019-03-26T05:16:53.212Z,5.20
2019-03-26T05:19:22.018Z,5.10
2019-03-26T05:21:51.119Z,5.10
2019-03-26T05:24:19.946Z,5.10
2019-03-26T05:26:48.746Z,5.10
2019-03-26T05:29:17.561Z,5.10
2019-03-26T05:31:47.597Z,5.10
2019-03-26T05:34:16.378Z,5.00
2019-03-26T05:36:51.176Z,5.10
2019-03-26T05:39:15.825Z,5.10
2019-03-26T05:41:45.102Z,5.00
2019-03-26T05:44:13.937Z,5.00
2019-03-26T05:46:42.785Z,4.90
2019-03-26T05:49:11.776Z,5.00
2019-03-26T05:51:40.620Z,5.00
2019-03-26T05:54:09.746Z,4.90
2019-03-26T05:56:38.873Z,5.00
2019-03-26T05:59:09.746Z,5.00
2019-03-26T06:01:38.602Z,5.10
2019-03-26T06:04:07.411Z,5.10
2019-03-26T06:06:36.181Z,5.20
2019-03-26T06:09:05.874Z,5.20
2019-03-26T06:11:34.715Z,5.20
2019-03-26T06:14:03.560Z,5.30
2019-03-26T06:16:38.320Z,5.30
2019-03-26T06:19:02.813Z,5.40
2019-03-26T06:21:31.573Z,5.40
2019-03-26T06:24:00.338Z,5.40
2019-03-26T06:26:29.144Z,5.40
2019-03-26T06:29:01.100Z,5.50
2019-03-26T06:31:28.785Z,5.50
2019-03-26T06:33:58.711Z,5.50
2019-03-26T06:36:27.425Z,5.60
2019-03-26T06:38:56.513Z,5.70
2019-03-26T06:41:25.284Z,5.70
2019-03-26T06:43:53.998Z,5.70
2019-03-26T06:46:22.812Z,5.80
2019-03-26T06:48:51.658Z,5.80
2019-03-26T06:51:20.434Z,5.80
2019-03-26T06:53:49.195Z,5.90
2019-03-26T06:56:17.912Z,5.90
2019-03-26T06:58:46.742Z,6.00
2019-03-26T07:01:15.570Z,6.00
2019-03-26T07:03:44.399Z,6.10
2019-03-26T07:06:13.187Z,6.10
2019-03-26T07:08:41.957Z,6.20
2019-03-26T07:11:10.685Z,6.20
2019-03-26T07:13:39.513Z,6.20
2019-03-26T07:16:08.312Z,6.30
2019-03-26T07:18:37.155Z,6.30
2019-03-26T07:21:05.943Z,6.30
2019-03-26T07:23:34.701Z,6.40
2019-03-26T07:26:03.494Z,6.50
2019-03-26T07:28:32.327Z,6.50
2019-03-26T07:31:01.040Z,6.50
2019-03-26T07:33:30.135Z,6.70
2019-03-26T07:35:58.977Z,6.80
2019-03-26T07:38:27.771Z,6.90
2019-03-26T07:40:56.621Z,7.00
2019-03-26T07:43:25.417Z,7.00
2019-03-26T07:45:54.236Z,7.10
2019-03-26T07:48:22.957Z,7.20
2019-03-26T07:50:51.786Z,7.20
2019-03-26T07:53:20.529Z,7.30
2019-03-26T07:55:49.361Z,7.30
2019-03-26T07:58:18.419Z,7.30
2019-03-26T08:00:47.295Z,7.40
2019-03-26T08:03:16.140Z,7.50
2019-03-26T08:05:44.934Z,7.50
2019-03-26T08:08:14.551Z,7.50
2019-03-26T08:10:43.397Z,7.60
2019-03-26T08:13:12.238Z,7.60
2019-03-26T08:15:41.088Z,7.60
2019-03-26T08:18:09.883Z,7.70
2019-03-26T08:20:38.717Z,7.80
2019-03-26T08:23:07.473Z,7.80
2019-03-26T08:25:36.291Z,7.80
2019-03-26T08:28:05.709Z,7.80
2019-03-26T08:30:34.425Z,7.80
2019-03-26T08:33:03.249Z,7.90
2019-03-26T08:35:32.082Z,8.00
2019-03-26T08:38:11.858Z,8.00
2019-03-26T08:40:32.392Z,8.10
2019-03-26T08:43:01.599Z,8.20
2019-03-26T08:45:30.380Z,8.30
2019-03-26T08:47:59.572Z,8.50
2019-03-26T08:50:28.449Z,8.60
2019-03-26T08:52:57.294Z,8.80
2019-03-26T08:55:26.022Z,8.80
2019-03-26T08:57:54.794Z,8.90
2019-03-26T09:00:23.616Z,9.00
2019-03-26T09:02:52.434Z,9.00
2019-03-26T09:05:21.270Z,9.00
2019-03-26T09:07:50.101Z,9.00
2019-03-26T09:10:18.936Z,9.00
2019-03-26T09:12:47.774Z,8.90
2019-03-26T09:15:16.569Z,9.00
2019-03-26T09:17:45.404Z,8.90
2019-03-26T09:20:14.619Z,8.90
2019-03-26T09:22:43.441Z,8.90
2019-03-26T09:25:12.462Z,9.00
2019-03-26T09:27:41.187Z,9.00
2019-03-26T09:30:12.732Z,9.10
2019-03-26T09:32:41.483Z,9.10
2019-03-26T09:35:10.935Z,9.20
2019-03-26T09:37:39.740Z,9.30
2019-03-26T09:40:09.176Z,9.40
2019-03-26T09:42:38.626Z,9.40
2019-03-26T09:45:11.252Z,9.40
2019-03-26T09:47:40.076Z,9.40
2019-03-26T09:50:10.483Z,9.40
2019-03-26T09:52:40.890Z,9.30
2019-03-26T09:55:10.366Z,9.30
2019-03-26T09:57:39.432Z,9.40
2019-03-26T10:00:10.830Z,9.40
2019-03-26T10:02:42.814Z,9.40
2019-03-26T10:05:10.802Z,9.50
2019-03-26T10:07:39.684Z,9.50
2019-03-26T10:10:09.241Z,9.50
2019-03-26T10:12:38.021Z,9.60
2019-03-26T10:15:07.366Z,9.60
2019-03-26T10:17:36.992Z,9.60
2019-03-26T10:20:09.378Z,9.60
2019-03-26T10:22:38.275Z,9.70
2019-03-26T10:25:10.652Z,9.70
2019-03-26T10:27:38.460Z,9.70
2019-03-26T10:30:10.119Z,9.80
2019-03-26T10:32:39.300Z,9.80
2019-03-26T10:35:08.532Z,9.90
2019-03-26T10:37:37.374Z,9.80
2019-03-26T10:40:08.054Z,9.90
2019-03-26T10:42:36.890Z,9.90
2019-03-26T10:45:07.422Z,10.00
2019-03-26T10:47:36.154Z,10.00
2019-03-26T10:50:07.311Z,10.10
2019-03-26T10:52:36.190Z,10.10
2019-03-26T10:55:05.883Z,10.20
2019-03-26T10:57:34.940Z,10.20
2019-03-26T11:00:05.842Z,10.20
2019-03-26T11:02:34.646Z,10.20
2019-03-26T11:05:04.343Z,10.30
2019-03-26T11:07:33.150Z,10.30
2019-03-26T11:10:01.998Z,10.40
2019-03-26T11:12:30.723Z,10.50
2019-03-26T11:14:59.576Z,10.60
2019-03-26T11:17:28.339Z,10.80
2019-03-26T11:19:57.463Z,10.90
2019-03-26T11:22:26.315Z,10.90
2019-03-26T11:24:55.108Z,11.00
2019-03-26T11:27:23.938Z,11.20
2019-03-26T11:29:52.683Z,11.30
2019-03-26T11:32:21.450Z,11.40
2019-03-26T11:34:50.177Z,11.50
2019-03-26T11:37:18.941Z,11.60
2019-03-26T11:39:47.702Z,11.70
2019-03-26T11:42:16.542Z,11.80
2019-03-26T11:44:45.743Z,11.80
2019-03-26T11:47:16.382Z,11.80
2019-03-26T11:49:45.208Z,12.00
2019-03-26T11:52:14.651Z,12.00
2019-03-26T11:54:43.388Z,12.10
2019-03-26T11:57:12.536Z,12.10
2019-03-26T11:59:42.400Z,12.20
2019-03-26T12:02:12.196Z,12.10
2019-03-26T12:04:41.043Z,12.20
2019-03-26T12:07:09.866Z,12.10
2019-03-26T12:09:46.277Z,12.00
2019-03-26T12:12:09.136Z,11.90
2019-03-26T12:14:37.963Z,11.80
2019-03-26T12:17:06.786Z,11.80
2019-03-26T12:19:35.656Z,11.80
2019-03-26T12:22:04.453Z,11.90
2019-03-26T12:24:33.228Z,11.90
2019-03-26T12:27:02.844Z,12.00
2019-03-26T12:29:32.778Z,11.90
2019-03-26T12:32:02.011Z,11.90
2019-03-26T12:34:30.857Z,12.00
2019-03-26T12:36:59.598Z,11.90
2019-03-26T12:39:28.464Z,11.90
2019-03-26T12:41:57.575Z,12.00
2019-03-26T12:44:26.772Z,12.10
2019-03-26T12:46:58.238Z,12.20
2019-03-26T12:49:25.961Z,12.30
2019-03-26T12:51:54.682Z,12.30
2019-03-26T12:54:23.528Z,12.20
2019-03-26T12:56:52.375Z,12.20
2019-03-26T12:59:22.813Z,12.30
2019-03-26T13:01:51.624Z,12.40
2019-03-26T13:04:20.446Z,12.40
2019-03-26T13:06:49.238Z,12.30
2019-03-26T13:09:18.067Z,12.20
2019-03-26T13:11:46.904Z,12.30
2019-03-26T13:14:16.111Z,12.30
2019-03-26T13:16:44.968Z,12.20
2019-03-26T13:19:13.765Z,12.30
2019-03-26T13:21:42.589Z,12.30
2019-03-26T13:24:11.735Z,12.40
2019-03-26T13:26:41.538Z,12.50
2019-03-26T13:29:10.391Z,12.40
2019-03-26T13:31:40.790Z,12.40
2019-03-26T13:34:09.883Z,12.30
2019-03-26T13:36:38.717Z,12.40
2019-03-26T13:39:08.856Z,12.50
2019-03-26T13:41:37.637Z,12.40
2019-03-26T13:44:06.466Z,12.50
2019-03-26T13:46:35.300Z,12.40
2019-03-26T13:49:04.345Z,12.40
2019-03-26T13:51:33.131Z,12.30
2019-03-26T13:54:02.324Z,12.40
2019-03-26T13:56:31.167Z,12.40
2019-03-26T13:59:00.168Z,12.40
2019-03-26T14:01:29.010Z,12.40
2019-03-26T14:03:58.192Z,12.50
2019-03-26T14:06:27.001Z,12.50
2019-03-26T14:08:56.759Z,12.40
2019-03-26T14:11:25.882Z,12.30
2019-03-26T14:13:54.705Z,12.30
2019-03-26T14:16:23.438Z,12.30
2019-03-26T14:18:52.210Z,12.30
2019-03-26T14:21:21.007Z,12.30
2019-03-26T14:23:49.847Z,12.30
2019-03-26T14:26:18.594Z,12.30
2019-03-26T14:28:47.329Z,12.20
2019-03-26T14:31:16.063Z,12.20
2019-03-26T14:33:44.902Z,12.20
2019-03-26T14:36:13.630Z,12.10
2019-03-26T14:38:42.457Z,12.10
2019-03-26T14:41:12.171Z,12.10
2019-03-26T14:43:41.332Z,12.00
2019-03-26T14:46:10.129Z,12.00
2019-03-26T14:48:39.341Z,12.00
2019-03-26T14:51:08.350Z,11.90
2019-03-26T14:53:37.087Z,11.80
2019-03-26T14:56:05.859Z,11.80
2019-03-26T14:58:34.596Z,11.80
2019-03-26T15:01:03.366Z,11.80
2019-03-26T15:03:32.667Z,11.70
2019-03-26T15:06:04.437Z,11.70
2019-03-26T15:08:32.232Z,11.70
2019-03-26T15:11:08.079Z,11.60
2019-03-26T15:13:32.548Z,11.70
2019-03-26T15:16:01.326Z,11.60
2019-03-26T15:18:30.183Z,11.60
2019-03-26T15:20:59.294Z,11.70
2019-03-26T15:23:28.025Z,11.70
2019-03-26T15:25:57.752Z,11.60
2019-03-26T15:28:26.557Z,11.60
2019-03-26T15:30:55.336Z,11.70
2019-03-26T15:33:24.126Z,11.60
2019-03-26T15:35:52.950Z,11.60
2019-03-26T15:38:22.708Z,11.60
2019-03-26T15:40:51.477Z,11.60
2019-03-26T15:43:20.335Z,11.60
2019-03-26T15:45:49.190Z,11.70
2019-03-26T15:48:17.991Z,11.70
2019-03-26T15:50:47.175Z,11.70
2019-03-26T15:53:16.195Z,11.80
2019-03-26T15:55:45.742Z,11.80
2019-03-26T15:58:14.584Z,11.90
2019-03-26T16:00:43.430Z,11.90
2019-03-26T16:03:12.433Z,11.90
2019-03-26T16:05:41.227Z,11.90
2019-03-26T16:08:10.066Z,11.90
2019-03-26T16:10:38.826Z,11.90
2019-03-26T16:13:07.665Z,11.90
2019-03-26T16:15:44.121Z,11.90
2019-03-26T16:18:06.925Z,11.80
2019-03-26T16:20:35.760Z,11.80
2019-03-26T16:23:04.591Z,11.80
2019-03-26T16:25:33.420Z,11.80
2019-03-26T16:28:02.582Z,11.90
2019-03-26T16:30:34.359Z,11.80
2019-03-26T16:33:02.186Z,11.80
2019-03-26T16:35:30.952Z,11.80
2019-03-26T16:37:59.755Z,11.80
2019-03-26T16:40:28.624Z,11.80
2019-03-26T16:42:57.431Z,11.80
2019-03-26T16:45:26.260Z,11.80
2019-03-26T16:47:54.996Z,11.80
2019-03-26T16:50:24.709Z,11.70
2019-03-26T16:52:53.830Z,11.60
2019-03-26T16:55:22.671Z,11.60
2019-03-26T16:57:51.473Z,11.70
2019-03-26T17:00:23.902Z,11.80
2019-03-26T17:02:52.699Z,11.80
2019-03-26T17:05:24.392Z,11.80
2019-03-26T17:07:53.155Z,11.70
2019-03-26T17:10:21.992Z,11.70
2019-03-26T17:12:50.799Z,11.60
2019-03-26T17:15:19.694Z,11.70
2019-03-26T17:17:48.438Z,11.60
2019-03-26T17:20:17.568Z,11.60
2019-03-26T17:22:46.286Z,11.60
2019-03-26T17:25:15.055Z,11.60
2019-03-26T17:27:43.901Z,11.50
2019-03-26T17:30:12.902Z,11.50
2019-03-26T17:32:41.658Z,11.50
2019-03-26T17:35:10.592Z,11.50
2019-03-26T17:37:39.419Z,11.50
2019-03-26T17:40:08.421Z,11.40
2019-03-26T17:42:37.275Z,11.40
2019-03-26T17:45:07.290Z,11.40
2019-03-26T17:47:36.056Z,11.40
2019-03-26T17:50:08.079Z,11.40
2019-03-26T17:52:36.956Z,11.40
2019-03-26T17:55:07.539Z,11.40
2019-03-26T17:57:36.334Z,11.30
2019-03-26T18:00:08.134Z,11.40
2019-03-26T18:02:36.850Z,11.30
2019-03-26T18:05:11.679Z,11.20
2019-03-26T18:07:40.795Z,11.20
2019-03-26T18:10:09.790Z,11.20
2019-03-26T18:12:38.628Z,11.20
2019-03-26T18:15:07.461Z,11.20
2019-03-26T18:17:36.551Z,11.10
2019-03-26T18:20:06.374Z,11.10
2019-03-26T18:22:35.223Z,11.00
2019-03-26T18:25:04.865Z,11.00
2019-03-26T18:27:35.409Z,11.10
2019-03-26T18:30:04.824Z,11.00
2019-03-26T18:32:33.585Z,11.00
2019-03-26T18:35:02.356Z,11.00
2019-03-26T18:37:31.561Z,11.00
2019-03-26T18:40:00.668Z,11.00
2019-03-26T18:42:38.725Z,11.00
2019-03-26T18:45:00.396Z,10.90
2019-03-26T18:47:29.274Z,10.90
2019-03-26T18:49:58.078Z,10.90
2019-03-26T18:52:27.261Z,10.90
2019-03-26T18:54:56.497Z,10.90
2019-03-26T18:57:25.420Z,10.90
2019-03-26T18:59:54.232Z,10.90
2019-03-26T19:02:23.042Z,10.90
2019-03-26T19:04:51.874Z,10.90
2019-03-26T19:07:20.713Z,10.90
2019-03-26T19:09:49.525Z,10.90
2019-03-26T19:12:18.284Z,10.80
2019-03-26T19:14:47.273Z,10.80
2019-03-26T19:17:16.161Z,10.70
2019-03-26T19:19:45.005Z,10.70
2019-03-26T19:22:13.821Z,10.70
2019-03-26T19:24:42.660Z,10.70
2019-03-26T19:27:11.456Z,10.70
2019-03-26T19:29:40.192Z,10.70
2019-03-26T19:32:09.022Z,10.60
2019-03-26T19:34:37.809Z,10.60
2019-03-26T19:37:06.652Z,10.60
2019-03-26T19:39:35.461Z,10.60
2019-03-26T19:42:04.275Z,10.60
2019-03-26T19:44:33.891Z,10.50
2019-03-26T19:47:02.704Z,10.40
2019-03-26T19:49:31.525Z,10.40
2019-03-26T19:52:00.351Z,10.40
2019-03-26T19:54:29.198Z,10.30
2019-03-26T19:56:58.011Z,10.40
2019-03-26T19:59:26.868Z,10.30
2019-03-26T20:01:55.632Z,10.30
2019-03-26T20:04:24.617Z,10.30
2019-03-26T20:06:53.428Z,10.30
2019-03-26T20:09:22.273Z,10.20
2019-03-26T20:11:51.111Z,10.20
2019-03-26T20:14:19.950Z,10.20
2019-03-26T20:16:48.756Z,10.30
2019-03-26T20:19:17.607Z,10.30
2019-03-26T20:21:49.610Z,10.30
2019-03-26T20:24:16.852Z,10.30
2019-03-26T20:26:45.647Z,10.30
2019-03-26T20:29:14.488Z,10.30
2019-03-26T20:31:43.324Z,10.40
2019-03-26T20:34:12.208Z,10.30
2019-03-26T20:36:41.297Z,10.30
2019-03-26T20:39:11.395Z,10.20
2019-03-26T20:41:40.109Z,10.20
2019-03-26T20:44:08.878Z,10.20
2019-03-26T20:46:37.715Z,10.20
2019-03-26T20:49:06.546Z,10.20
2019-03-26T20:51:35.350Z,10.20
2019-03-26T20:54:04.170Z,10.20
2019-03-26T20:56:33.436Z,10.20
2019-03-26T20:59:02.573Z,10.20
2019-03-26T21:01:31.387Z,10.10
2019-03-26T21:04:01.021Z,10.10
2019-03-26T21:06:29.877Z,10.10
2019-03-26T21:08:58.666Z,10.10
2019-03-26T21:11:28.807Z,10.00
2019-03-26T21:13:57.659Z,10.00
2019-03-26T21:16:26.415Z,10.00
2019-03-26T21:18:55.223Z,10.00
2019-03-26T21:21:24.025Z,9.90
2019-03-26T21:23:52.869Z,9.90
2019-03-26T21:26:21.963Z,9.90
2019-03-26T21:28:51.605Z,9.80
2019-03-26T21:31:21.434Z,9.80
2019-03-26T21:33:50.242Z,9.80
2019-03-26T21:36:19.041Z,9.80
2019-03-26T21:38:47.966Z,9.80
2019-03-26T21:41:16.957Z,9.80
2019-03-26T21:43:45.769Z,9.80
2019-03-26T21:46:14.606Z,9.80
2019-03-26T21:48:43.436Z,9.80
2019-03-26T21:51:12.605Z,9.80
2019-03-26T21:53:42.890Z,9.80
2019-03-26T21:56:11.651Z,9.80
2019-03-26T21:58:40.996Z,9.80
2019-03-26T22:01:09.793Z,9.80
2019-03-26T22:03:38.635Z,9.80
2019-03-26T22:06:07.421Z,9.80
2019-03-26T22:08:36.279Z,9.80
2019-03-26T22:11:05.369Z,9.90
2019-03-26T22:13:35.262Z,9.80
2019-03-26T22:16:04.500Z,9.80
2019-03-26T22:18:33.399Z,9.90
2019-03-26T22:21:02.128Z,9.80
2019-03-26T22:23:30.958Z,9.80
2019-03-26T22:25:59.701Z,9.90
2019-03-26T22:28:28.438Z,9.90
2019-03-26T22:30:57.273Z,9.90
2019-03-26T22:33:26.069Z,9.90
2019-03-26T22:35:56.178Z,9.80
2019-03-26T22:38:25.116Z,9.90
2019-03-26T22:40:53.959Z,10.00
2019-03-26T22:43:22.885Z,9.90
2019-03-26T22:45:51.881Z,9.90
2019-03-26T22:48:20.727Z,10.00
2019-03-26T22:50:49.515Z,10.00
2019-03-26T22:53:18.282Z,10.00
2019-03-26T22:55:47.382Z,10.00
2019-03-26T22:58:16.513Z,9.90
2019-03-26T23:00:45.334Z,9.90
2019-03-26T23:03:14.179Z,9.90
2019-03-26T23:05:43.007Z,9.90
2019-03-26T23:08:11.809Z,9.90
2019-03-26T23:10:40.649Z,9.80
2019-03-26T23:13:09.491Z,9.80
2019-03-26T23:15:38.295Z,9.80
2019-03-26T23:18:07.126Z,9.70
2019-03-26T23:20:36.127Z,9.70
2019-03-26T23:23:04.974Z,9.70
2019-03-26T23:25:33.812Z,9.70
2019-03-26T23:28:02.691Z,9.70
2019-03-26T23:30:31.868Z,9.70
2019-03-26T23:33:00.967Z,9.70
2019-03-26T23:35:29.785Z,9.70
2019-03-26T23:37:58.604Z,9.70
2019-03-26T23:40:28.599Z,9.60
2019-03-26T23:42:57.874Z,9.70
2019-03-26T23:45:26.708Z,9.70
2019-03-26T23:47:55.504Z,9.60
2019-03-26T23:50:24.471Z,9.60
2019-03-26T23:52:53.613Z,9.60
2019-03-26T23:55:22.705Z,9.60
2019-03-26T23:57:51.921Z,9.60
